Time;durP1;ratioP1;P1;durP2;ratioP2;P2;SDS_P1;SDS_P2;PMS_P1;PMS_P2;Temp;Humidity;BMP_temperature;BMP_pressure;BME280_temperature;BME280_humidity;BME280_pressure;Samples;Min_cycle;Max_cycle;Signal;HPM_P1;HPM_P2
2023/03/06 00:00:57;;;;;;;9.25;6.88;;;1.10;87.40;;;;;;5088706;28;20028;-76
2023/03/06 00:03:24;;;;;;;9.50;6.22;;;0.90;87.10;;;;;;5089621;28;20575;-75
2023/03/06 00:05:50;;;;;;;6.13;5.47;;;0.90;87.50;;;;;;5071955;28;20401;-75
2023/03/06 00:08:16;;;;;;;12.15;6.45;;;0.90;87.90;;;;;;5090017;28;20020;-76
2023/03/06 00:10:41;;;;;;;10.40;6.93;;;0.80;88.60;;;;;;5072243;28;20545;-76
2023/03/06 00:13:14;;;;;;;7.90;6.22;;;0.70;88.90;;;;;;5082208;28;20260;-75
2023/03/06 00:15:41;;;;;;;7.43;6.28;;;0.80;89.10;;;;;;5088238;28;20482;-76
2023/03/06 00:18:07;;;;;;;7.55;5.95;;;1.00;88.50;;;;;;5090039;28;20028;-76
2023/03/06 00:20:33;;;;;;;12.48;6.28;;;1.00;87.80;;;;;;5087818;28;20058;-78
2023/03/06 00:22:59;;;;;;;7.18;5.65;;;1.00;87.10;;;;;;5093264;28;20032;-75
2023/03/06 00:25:25;;;;;;;9.55;6.93;;;1.20;87.00;;;;;;5083811;28;20045;-77
2023/03/06 00:27:50;;;;;;;8.15;5.93;;;1.10;86.50;;;;;;5109653;28;20400;-76
2023/03/06 00:30:22;;;;;;;8.63;6.57;;;1.10;86.80;;;;;;5109393;28;20081;-78
2023/03/06 00:32:48;;;;;;;8.45;6.50;;;1.10;86.40;;;;;;5105274;28;20038;-77
2023/03/06 00:35:15;;;;;;;9.73;6.65;;;1.20;85.50;;;;;;5109578;28;20072;-76
2023/03/06 00:37:41;;;;;;;8.77;6.63;;;1.10;85.40;;;;;;5090673;28;20422;-78
2023/03/06 00:40:11;;;;;;;9.27;7.25;;;0.90;85.70;;;;;;5105139;28;20024;-79
2023/03/06 00:42:37;;;;;;;8.57;6.75;;;0.90;85.40;;;;;;5103461;28;20034;-77
2023/03/06 00:45:03;;;;;;;9.88;6.63;;;0.80;85.50;;;;;;5109373;28;20035;-77
2023/03/06 00:47:28;;;;;;;12.05;8.02;;;0.90;85.30;;;;;;5108200;28;20039;-75
2023/03/06 00:49:54;;;;;;;10.40;6.93;;;1.00;85.90;;;;;;5107337;28;20400;-76
2023/03/06 00:52:20;;;;;;;8.38;6.63;;;1.10;85.00;;;;;;5108106;28;20032;-76
2023/03/06 00:54:45;;;;;;;7.80;5.93;;;1.20;84.90;;;;;;5108280;28;20089;-77
2023/03/06 00:57:11;;;;;;;12.52;7.28;;;1.10;84.90;;;;;;5108422;28;20058;-77
2023/03/06 00:59:37;;;;;;;11.20;6.03;;;1.10;85.50;;;;;;5108211;28;20553;-76
2023/03/06 01:02:03;;;;;;;10.55;7.07;;;1.00;85.60;;;;;;5091244;28;20028;-77
2023/03/06 01:04:29;;;;;;;10.85;7.15;;;0.90;85.90;;;;;;5090405;28;20042;-79
2023/03/06 01:06:55;;;;;;;8.95;6.80;;;0.90;85.80;;;;;;5109106;28;20073;-75
2023/03/06 01:09:20;;;;;;;9.70;6.80;;;0.90;85.90;;;;;;5091283;28;20109;-77
2023/03/06 01:11:46;;;;;;;9.13;6.53;;;0.70;86.60;;;;;;5074504;28;20042;-77
2023/03/06 01:14:12;;;;;;;8.90;6.25;;;0.60;87.00;;;;;;5100323;28;20085;-77
2023/03/06 01:16:37;;;;;;;13.05;7.88;;;0.70;87.00;;;;;;5109634;28;20035;-77
2023/03/06 01:19:03;;;;;;;11.95;6.45;;;0.80;86.10;;;;;;5109088;28;20026;-76
2023/03/06 01:21:29;;;;;;;9.23;7.05;;;0.90;86.40;;;;;;5106562;28;20031;-78
2023/03/06 01:23:54;;;;;;;11.65;7.28;;;0.80;86.50;;;;;;5075723;28;20101;-78
2023/03/06 01:26:20;;;;;;;7.75;5.75;;;0.80;86.80;;;;;;5071115;28;20203;-75
2023/03/06 01:28:46;;;;;;;10.23;6.68;;;0.90;86.50;;;;;;5089013;28;20089;-77
2023/03/06 01:31:12;;;;;;;10.70;7.05;;;0.80;86.10;;;;;;5088822;28;20040;-76
2023/03/06 01:33:37;;;;;;;9.07;6.68;;;0.70;86.10;;;;;;5083204;28;20040;-79
2023/03/06 01:36:06;;;;;;;8.98;6.05;;;0.70;86.50;;;;;;5070847;28;20661;-77
2023/03/06 01:38:31;;;;;;;13.50;7.70;;;0.70;86.70;;;;;;5068184;28;20028;-76
2023/03/06 01:40:57;;;;;;;9.75;6.90;;;0.80;86.30;;;;;;5088736;28;20031;-76
2023/03/06 01:43:36;;;;;;;10.93;7.47;;;0.80;85.90;;;;;;5088505;28;20574;-76
2023/03/06 01:46:23;;;;;;;9.55;6.40;;;0.80;85.60;;;;;;5087259;28;20039;-78
2023/03/06 01:48:56;;;;;;;12.23;7.47;;;0.70;85.90;;;;;;5088634;28;20024;-76
2023/03/06 01:51:25;;;;;;;11.57;7.32;;;0.80;86.60;;;;;;5089664;28;20032;-80
2023/03/06 01:53:52;;;;;;;10.95;7.15;;;0.70;86.30;;;;;;5089108;28;20166;-77
2023/03/06 01:56:18;;;;;;;11.30;7.00;;;0.70;87.10;;;;;;5089094;28;20024;-75
2023/03/06 01:58:45;;;;;;;7.43;5.80;;;0.70;87.20;;;;;;5089055;28;20432;-76
2023/03/06 02:01:13;;;;;;;9.35;6.63;;;0.80;87.20;;;;;;5091108;28;20060;-75
2023/03/06 02:03:40;;;;;;;11.52;7.38;;;0.70;86.80;;;;;;5092626;28;20542;-76
2023/03/06 02:06:06;;;;;;;10.90;7.35;;;0.80;87.20;;;;;;5092252;28;20044;-78
2023/03/06 02:08:32;;;;;;;9.80;6.57;;;0.80;87.30;;;;;;5052000;28;20032;-79
2023/03/06 02:11:13;;;;;;;10.57;7.38;;;0.80;86.60;;;;;;5091945;28;20054;-75
2023/03/06 02:13:40;;;;;;;6.93;5.57;;;0.90;87.10;;;;;;5091793;28;20493;-77
2023/03/06 02:16:08;;;;;;;10.77;7.13;;;0.80;87.50;;;;;;5073915;28;20066;-75
2023/03/06 02:18:35;;;;;;;8.57;6.10;;;0.80;87.70;;;;;;5092631;28;20070;-77
2023/03/06 02:21:09;;;;;;;9.82;7.32;;;0.80;87.10;;;;;;5092591;28;20085;-76
2023/03/06 02:23:53;;;;;;;9.10;6.55;;;0.80;86.80;;;;;;5100813;28;20047;-76
2023/03/06 02:26:20;;;;;;;6.43;5.65;;;0.70;86.40;;;;;;5111476;28;20028;-76
2023/03/06 02:28:46;;;;;;;11.90;7.28;;;0.70;86.30;;;;;;5112399;28;20039;-76
2023/03/06 02:31:32;;;;;;;9.02;6.28;;;0.80;87.00;;;;;;5112720;28;20019;-77
2023/03/06 02:34:27;;;;;;;8.90;6.70;;;0.80;87.00;;;;;;5113131;27;20083;-74
2023/03/06 02:36:59;;;;;;;10.45;6.65;;;0.80;87.30;;;;;;5111396;28;20616;-76
2023/03/06 02:39:28;;;;;;;8.52;6.60;;;0.80;86.90;;;;;;5093557;28;20173;-78
2023/03/06 02:41:54;;;;;;;10.77;7.70;;;0.80;86.70;;;;;;5112568;28;20031;-75
2023/03/06 02:44:21;;;;;;;9.35;6.75;;;0.80;86.60;;;;;;5092773;28;20027;-76
2023/03/06 02:46:47;;;;;;;8.48;6.50;;;0.70;87.10;;;;;;5110007;28;20031;-75
2023/03/06 02:49:12;;;;;;;8.77;6.90;;;0.60;87.70;;;;;;5100073;28;20033;-78
2023/03/06 02:51:38;;;;;;;8.80;6.60;;;0.70;87.30;;;;;;5105693;28;20055;-77
2023/03/06 02:54:04;;;;;;;8.50;6.03;;;0.70;87.40;;;;;;5093288;28;20763;-75
2023/03/06 02:56:29;;;;;;;13.43;6.47;;;0.60;86.40;;;;;;5106979;28;20036;-78
2023/03/06 02:58:55;;;;;;;13.90;8.20;;;0.80;86.40;;;;;;5108865;28;20495;-79
2023/03/06 03:01:20;;;;;;;8.23;6.80;;;0.70;86.20;;;;;;5093027;28;20038;-76
2023/03/06 03:03:46;;;;;;;8.05;6.63;;;0.70;86.40;;;;;;5111628;28;20039;-76
2023/03/06 03:06:12;;;;;;;9.32;7.15;;;0.70;86.00;;;;;;5104592;28;20035;-78
2023/03/06 03:08:37;;;;;;;10.38;7.15;;;0.70;85.90;;;;;;5093911;28;20097;-77
2023/03/06 03:11:04;;;;;;;8.13;6.63;;;0.60;86.30;;;;;;5081510;28;20111;-77
2023/03/06 03:13:30;;;;;;;14.68;7.53;;;0.60;87.00;;;;;;5086904;28;20028;-79
2023/03/06 03:15:59;;;;;;;9.80;6.78;;;0.70;86.50;;;;;;5089976;28;20570;-75
2023/03/06 03:18:25;;;;;;;10.95;7.75;;;0.70;86.30;;;;;;5103603;28;20366;-78
2023/03/06 03:20:50;;;;;;;9.68;7.55;;;0.50;87.10;;;;;;5109655;28;20032;-77
2023/03/06 03:23:16;;;;;;;8.80;6.85;;;0.50;87.20;;;;;;5092088;28;20036;-78
2023/03/06 03:25:42;;;;;;;10.00;7.57;;;0.50;87.40;;;;;;5103490;28;20032;-75
2023/03/06 03:28:07;;;;;;;9.80;7.25;;;0.60;87.10;;;;;;5084959;28;20298;-77
2023/03/06 03:30:33;;;;;;;10.02;6.82;;;0.70;86.90;;;;;;5076461;28;20138;-76
2023/03/06 03:32:58;;;;;;;14.00;7.28;;;0.70;86.60;;;;;;5109890;28;20036;-78
2023/03/06 03:35:24;;;;;;;9.57;6.90;;;0.70;86.30;;;;;;5093079;28;20070;-79
2023/03/06 03:37:51;;;;;;;15.68;7.57;;;0.80;86.90;;;;;;5092002;28;20034;-78
2023/03/06 03:40:17;;;;;;;9.60;7.43;;;0.90;87.10;;;;;;5103278;28;20122;-75
2023/03/06 03:42:43;;;;;;;8.07;6.60;;;0.80;86.20;;;;;;5092073;28;20600;-74
2023/03/06 03:45:09;;;;;;;7.97;6.72;;;0.70;86.10;;;;;;5110313;28;20512;-77
2023/03/06 03:47:34;;;;;;;10.63;7.57;;;0.70;86.50;;;;;;5089607;28;20032;-75
2023/03/06 03:50:00;;;;;;;10.63;6.75;;;0.80;87.20;;;;;;5107887;28;20039;-76
2023/03/06 03:52:26;;;;;;;9.73;7.65;;;0.70;87.30;;;;;;5077697;28;20138;-78
2023/03/06 03:54:51;;;;;;;11.05;7.75;;;0.70;87.30;;;;;;5091703;28;20028;-77
2023/03/06 03:57:17;;;;;;;14.25;7.78;;;0.60;87.70;;;;;;5092598;28;20031;-77
2023/03/06 03:59:42;;;;;;;12.02;7.00;;;0.50;86.90;;;;;;5093100;28;20027;-76
2023/03/06 04:02:08;;;;;;;10.32;7.35;;;0.50;87.00;;;;;;5095588;28;20036;-76
2023/03/06 04:04:34;;;;;;;14.40;7.10;;;0.60;87.40;;;;;;5110138;28;20027;-77
2023/03/06 04:06:59;;;;;;;10.85;7.45;;;0.60;87.70;;;;;;5109970;28;20095;-78
2023/03/06 04:09:25;;;;;;;12.43;7.57;;;0.60;87.90;;;;;;5091319;28;20486;-77
2023/03/06 04:11:52;;;;;;;9.65;6.85;;;0.60;88.30;;;;;;5110221;28;20040;-77
2023/03/06 04:14:17;;;;;;;10.30;7.80;;;0.60;87.90;;;;;;5108164;28;20031;-77
2023/03/06 04:16:43;;;;;;;9.50;6.68;;;0.70;88.20;;;;;;5110259;28;20460;-77
2023/03/06 04:19:10;;;;;;;13.93;7.95;;;0.70;88.60;;;;;;5089509;28;20135;-79
2023/03/06 04:21:36;;;;;;;8.73;6.38;;;0.70;88.60;;;;;;5098721;28;20046;-77
2023/03/06 04:24:02;;;;;;;10.98;7.57;;;0.60;88.80;;;;;;5090646;28;20448;-75
2023/03/06 04:26:27;;;;;;;10.73;7.70;;;0.60;89.10;;;;;;5109119;28;20110;-77
2023/03/06 04:28:54;;;;;;;9.95;7.07;;;0.50;89.00;;;;;;5109798;28;20107;-77
2023/03/06 04:31:20;;;;;;;10.10;7.22;;;0.50;89.20;;;;;;5107507;28;20055;-76
2023/03/06 04:33:46;;;;;;;9.75;7.15;;;0.40;89.10;;;;;;5110080;28;20059;-76
2023/03/06 04:36:24;;;;;;;14.20;7.63;;;0.50;89.40;;;;;;5099180;28;20028;-76
2023/03/06 04:38:49;;;;;;;8.50;6.57;;;0.40;89.60;;;;;;5109767;28;20507;-77
2023/03/06 04:41:15;;;;;;;8.32;6.95;;;0.50;89.90;;;;;;5108503;28;20028;-77
2023/03/06 04:43:40;;;;;;;9.75;7.10;;;0.50;89.50;;;;;;5110665;28;20027;-78
2023/03/06 04:46:07;;;;;;;7.85;7.05;;;0.50;89.80;;;;;;5092252;28;20023;-79
2023/03/06 04:48:35;;;;;;;11.75;6.32;;;0.60;89.90;;;;;;5110473;28;20481;-78
2023/03/06 04:51:00;;;;;;;9.82;7.25;;;0.50;89.60;;;;;;5084851;28;20028;-75
2023/03/06 04:53:26;;;;;;;8.88;7.30;;;0.50;90.00;;;;;;5109286;28;20032;-75
2023/03/06 04:55:51;;;;;;;16.00;7.45;;;0.50;90.10;;;;;;5090669;28;20035;-79
2023/03/06 04:58:17;;;;;;;11.63;7.65;;;0.50;90.10;;;;;;5108182;28;20702;-76
2023/03/06 05:00:43;;;;;;;16.05;8.25;;;0.40;90.00;;;;;;5085475;28;20035;-76
2023/03/06 05:03:11;;;;;;;10.15;7.68;;;0.40;89.80;;;;;;5091200;28;20024;-76
2023/03/06 05:05:36;;;;;;;8.45;7.47;;;0.40;90.00;;;;;;5109777;28;20032;-75
2023/03/06 05:08:02;;;;;;;10.20;7.07;;;0.30;90.10;;;;;;5101861;28;20395;-75
2023/03/06 05:10:28;;;;;;;10.77;6.93;;;0.30;90.10;;;;;;5109332;28;20032;-76
2023/03/06 05:12:53;;;;;;;12.85;7.78;;;0.40;90.20;;;;;;5086503;28;20131;-77
2023/03/06 05:15:19;;;;;;;14.20;7.38;;;0.40;90.20;;;;;;5086656;28;20028;-77
2023/03/06 05:17:46;;;;;;;10.85;6.88;;;0.40;90.00;;;;;;5083819;28;20042;-76
2023/03/06 05:20:13;;;;;;;10.98;7.88;;;0.40;90.00;;;;;;5107410;28;20022;-78
2023/03/06 05:22:39;;;;;;;9.80;7.32;;;0.40;89.80;;;;;;5086074;28;20493;-77
2023/03/06 05:25:06;;;;;;;13.52;7.78;;;0.40;89.90;;;;;;5104996;28;20105;-77
2023/03/06 05:27:32;;;;;;;9.85;7.38;;;0.40;89.90;;;;;;5094436;28;20039;-80
2023/03/06 05:29:58;;;;;;;10.15;7.38;;;0.40;89.70;;;;;;5108748;28;20039;-77
2023/03/06 05:32:23;;;;;;;12.02;7.55;;;0.40;90.30;;;;;;5088540;28;20111;-78
2023/03/06 05:34:49;;;;;;;8.95;6.78;;;0.40;89.50;;;;;;5091765;27;20122;-77
2023/03/06 05:37:15;;;;;;;8.60;6.45;;;0.30;89.30;;;;;;5076878;28;20040;-76
2023/03/06 05:39:41;;;;;;;9.48;7.18;;;0.40;89.40;;;;;;5102243;28;20490;-77
2023/03/06 05:42:07;;;;;;;9.15;7.70;;;0.40;89.70;;;;;;5097845;28;20039;-75
2023/03/06 05:44:34;;;;;;;9.10;7.05;;;0.30;89.90;;;;;;5091670;28;20028;-77
2023/03/06 05:47:00;;;;;;;7.82;6.80;;;0.40;90.00;;;;;;5107473;28;20708;-77
2023/03/06 05:49:30;;;;;;;11.10;7.35;;;0.30;89.80;;;;;;5086995;28;20566;-76
2023/03/06 05:51:55;;;;;;;11.57;7.28;;;0.40;90.00;;;;;;5101225;28;20027;-75
2023/03/06 05:54:23;;;;;;;10.77;7.03;;;0.40;90.10;;;;;;5092200;28;20035;-75
2023/03/06 05:56:50;;;;;;;12.02;7.20;;;0.40;89.90;;;;;;5108089;28;20063;-75
2023/03/06 05:59:15;;;;;;;11.00;7.15;;;0.50;90.00;;;;;;5092883;28;20034;-80
2023/03/06 06:01:41;;;;;;;11.30;7.43;;;0.60;90.00;;;;;;5103183;28;20036;-76
2023/03/06 06:04:07;;;;;;;9.70;7.28;;;0.50;89.80;;;;;;5086191;28;20370;-78
2023/03/06 06:06:33;;;;;;;9.65;7.13;;;0.50;89.80;;;;;;5116169;27;20471;-79
2023/03/06 06:08:58;;;;;;;10.95;7.30;;;0.40;89.20;;;;;;5099606;28;20413;-76
2023/03/06 06:11:24;;;;;;;8.95;7.18;;;0.50;89.80;;;;;;5107729;28;20074;-75
2023/03/06 06:13:49;;;;;;;10.32;7.22;;;0.50;90.00;;;;;;5110740;28;20075;-80
2023/03/06 06:16:15;;;;;;;12.50;7.65;;;0.60;89.60;;;;;;5085745;28;20032;-75
2023/03/06 06:18:41;;;;;;;9.00;6.20;;;0.70;89.40;;;;;;5077552;28;20488;-77
2023/03/06 06:21:10;;;;;;;12.10;6.80;;;0.60;89.10;;;;;;5096301;28;20103;-78
2023/03/06 06:23:36;;;;;;;9.25;6.97;;;0.60;88.70;;;;;;5106937;28;20069;-75
2023/03/06 06:26:04;;;;;;;10.55;7.93;;;0.50;88.60;;;;;;5110661;28;20040;-76
2023/03/06 06:28:30;;;;;;;10.90;7.00;;;0.60;88.80;;;;;;5111729;28;20438;-75
2023/03/06 06:30:56;;;;;;;11.13;8.13;;;0.60;88.70;;;;;;5105860;28;20126;-75
2023/03/06 06:33:22;;;;;;;8.10;7.28;;;0.70;88.80;;;;;;5090498;28;20047;-75
2023/03/06 06:35:49;;;;;;;9.10;7.60;;;0.60;88.30;;;;;;5094982;28;20081;-76
2023/03/06 06:38:15;;;;;;;9.90;6.07;;;0.60;88.60;;;;;;5110570;28;20098;-76
2023/03/06 06:40:40;;;;;;;12.55;7.70;;;0.60;88.00;;;;;;5079305;28;20162;-75
2023/03/06 06:43:06;;;;;;;7.90;6.75;;;0.60;87.90;;;;;;5108458;27;20501;-75
2023/03/06 06:45:32;;;;;;;17.98;7.20;;;0.70;88.60;;;;;;5099436;28;20421;-75
2023/03/06 06:47:57;;;;;;;8.18;7.25;;;0.70;88.10;;;;;;5109822;28;20102;-77
2023/03/06 06:50:23;;;;;;;10.30;7.22;;;0.70;88.00;;;;;;5112775;28;20020;-76
2023/03/06 06:52:49;;;;;;;9.82;6.85;;;0.70;88.70;;;;;;5109506;28;20036;-76
2023/03/06 06:55:15;;;;;;;9.38;6.85;;;0.80;88.10;;;;;;5098077;28;20039;-76
2023/03/06 06:57:41;;;;;;;8.77;6.05;;;0.80;87.90;;;;;;5111584;28;20042;-77
2023/03/06 07:00:07;;;;;;;9.15;6.53;;;0.90;87.60;;;;;;5096432;28;20063;-78
2023/03/06 07:02:33;;;;;;;9.55;6.55;;;1.00;87.20;;;;;;5097320;28;20032;-76
2023/03/06 07:04:59;;;;;;;11.93;6.72;;;1.00;86.70;;;;;;5097556;28;20382;-76
2023/03/06 07:07:24;;;;;;;9.70;6.85;;;1.00;86.60;;;;;;5093087;28;20032;-75
2023/03/06 07:09:50;;;;;;;8.25;6.28;;;0.90;86.40;;;;;;5095067;28;20027;-75
2023/03/06 07:12:15;;;;;;;9.80;6.63;;;1.00;86.60;;;;;;5111568;28;20035;-78
2023/03/06 07:14:41;;;;;;;12.18;7.03;;;1.00;86.60;;;;;;5083192;28;20038;-77
2023/03/06 07:17:08;;;;;;;8.82;6.43;;;1.00;86.30;;;;;;5109901;28;20027;-79
2023/03/06 07:19:34;;;;;;;12.98;7.32;;;1.00;86.30;;;;;;5111111;28;20015;-75
2023/03/06 07:22:00;;;;;;;9.50;6.43;;;1.00;86.20;;;;;;5110872;28;20052;-78
2023/03/06 07:24:26;;;;;;;8.88;7.10;;;1.10;86.30;;;;;;5060772;28;20446;-77
2023/03/06 07:26:52;;;;;;;7.22;5.63;;;1.20;86.60;;;;;;5090882;28;20032;-79
2023/03/06 07:29:17;;;;;;;9.05;6.88;;;1.20;86.00;;;;;;5073152;28;20180;-75
2023/03/06 07:31:43;;;;;;;11.13;6.90;;;1.10;85.60;;;;;;5090079;28;20451;-77
2023/03/06 07:34:13;;;;;;;9.00;7.47;;;1.10;85.90;;;;;;5087722;28;20032;-79
2023/03/06 07:36:39;;;;;;;9.00;6.53;;;1.20;85.70;;;;;;5072475;28;20713;-75
2023/03/06 07:39:09;;;;;;;8.90;6.80;;;1.20;85.90;;;;;;5071812;28;20390;-79
2023/03/06 07:41:35;;;;;;;9.30;6.75;;;1.20;86.10;;;;;;5072010;28;20048;-81
2023/03/06 07:44:01;;;;;;;11.65;7.13;;;1.20;86.00;;;;;;5093430;28;20020;-79
2023/03/06 07:46:27;;;;;;;18.77;7.85;;;1.30;85.60;;;;;;5091652;28;20389;-78
2023/03/06 07:48:52;;;;;;;10.10;7.75;;;1.40;85.80;;;;;;5074531;28;20086;-80
2023/03/06 07:51:20;;;;;;;11.38;7.63;;;1.40;85.40;;;;;;5091174;28;20028;-77
2023/03/06 07:53:47;;;;;;;11.73;7.43;;;1.50;85.00;;;;;;5091164;28;20039;-77
2023/03/06 07:56:13;;;;;;;14.48;10.38;;;1.50;84.60;;;;;;5055716;28;20052;-79
2023/03/06 07:58:42;;;;;;;7.07;5.70;;;1.60;84.50;;;;;;5069933;28;20451;-75
2023/03/06 08:01:10;;;;;;;6.70;5.53;;;1.60;83.40;;;;;;5090531;28;20040;-79
2023/03/06 08:03:36;;;;;;;9.73;6.55;;;1.60;82.50;;;;;;5072272;28;20032;-81
2023/03/06 08:06:06;;;;;;;7.43;5.53;;;1.70;83.10;;;;;;5089347;28;20019;-80
2023/03/06 08:08:36;;;;;;;9.30;6.37;;;1.60;82.20;;;;;;5089999;28;20028;-76
2023/03/06 08:11:02;;;;;;;7.40;5.60;;;1.50;82.70;;;;;;5090523;28;20028;-78
2023/03/06 08:13:28;;;;;;;7.60;5.43;;;1.50;81.90;;;;;;5071613;28;20299;-75
2023/03/06 08:15:55;;;;;;;7.50;5.97;;;1.60;82.50;;;;;;5072141;28;20039;-75
2023/03/06 08:18:20;;;;;;;9.07;6.18;;;1.60;82.50;;;;;;5071120;28;20037;-77
2023/03/06 08:20:46;;;;;;;8.32;5.80;;;1.70;81.80;;;;;;5090778;28;20038;-78
2023/03/06 08:23:12;;;;;;;9.98;4.80;;;1.60;81.50;;;;;;5055191;28;20051;-74
2023/03/06 08:25:37;;;;;;;6.45;5.32;;;1.70;80.10;;;;;;5072477;28;20024;-77
2023/03/06 08:28:03;;;;;;;10.95;6.45;;;1.70;80.60;;;;;;5090323;28;20047;-76
2023/03/06 08:30:29;;;;;;;8.40;5.32;;;1.60;81.30;;;;;;5091100;28;20069;-78
2023/03/06 08:32:54;;;;;;;6.90;5.57;;;1.70;81.30;;;;;;5089673;28;20036;-75
2023/03/06 08:35:20;;;;;;;7.65;5.60;;;1.90;80.50;;;;;;5055703;28;20039;-75
2023/03/06 08:37:46;;;;;;;7.40;5.30;;;2.00;79.40;;;;;;5091497;28;20115;-75
2023/03/06 08:40:12;;;;;;;7.07;5.15;;;2.10;79.20;;;;;;5092835;28;20468;-76
2023/03/06 08:42:38;;;;;;;6.90;5.28;;;2.00;78.60;;;;;;5090571;28;20020;-76
2023/03/06 08:45:05;;;;;;;8.77;4.30;;;2.00;79.50;;;;;;5071369;28;20056;-76
2023/03/06 08:47:31;;;;;;;5.65;4.90;;;2.10;78.60;;;;;;5089987;28;20197;-76
2023/03/06 08:49:57;;;;;;;5.25;4.72;;;2.10;78.80;;;;;;5089013;28;20751;-76
2023/03/06 08:52:23;;;;;;;7.93;5.30;;;2.20;79.10;;;;;;5089852;28;20057;-76
2023/03/06 08:54:48;;;;;;;6.22;5.45;;;2.20;78.50;;;;;;5089679;28;20035;-76
2023/03/06 08:57:14;;;;;;;5.38;4.07;;;2.10;79.00;;;;;;5090903;28;20031;-76
2023/03/06 08:59:41;;;;;;;6.78;5.68;;;2.20;78.30;;;;;;5071688;28;20474;-76
2023/03/06 09:02:10;;;;;;;7.07;4.80;;;2.20;78.50;;;;;;5076095;28;20030;-76
2023/03/06 09:04:36;;;;;;;11.40;5.50;;;2.20;78.30;;;;;;5094200;28;20540;-80
2023/03/06 09:07:02;;;;;;;7.80;4.85;;;2.30;78.50;;;;;;5071296;28;20032;-76
2023/03/06 09:09:27;;;;;;;6.07;4.97;;;2.60;77.70;;;;;;5090331;28;20039;-75
2023/03/06 09:11:53;;;;;;;6.35;4.78;;;2.70;76.80;;;;;;5092270;28;20036;-78
2023/03/06 09:14:19;;;;;;;14.77;5.43;;;2.50;76.60;;;;;;5089370;28;20028;-77
2023/03/06 09:16:45;;;;;;;8.02;6.18;;;2.50;76.60;;;;;;5089981;28;20035;-76
2023/03/06 09:19:10;;;;;;;6.05;4.97;;;2.50;77.20;;;;;;5092698;28;20028;-75
2023/03/06 09:21:36;;;;;;;12.52;8.23;;;2.50;77.00;;;;;;5093068;28;20103;-77
2023/03/06 09:24:02;;;;;;;7.78;4.97;;;2.60;76.60;;;;;;5101348;28;20044;-76
2023/03/06 09:26:28;;;;;;;7.95;6.40;;;2.60;75.00;;;;;;5090091;28;20027;-76
2023/03/06 09:28:53;;;;;;;5.70;5.10;;;2.70;75.10;;;;;;5098855;28;20023;-78
2023/03/06 09:31:19;;;;;;;7.65;5.28;;;2.90;74.70;;;;;;5091859;28;20024;-77
2023/03/06 09:33:45;;;;;;;7.10;5.53;;;3.20;75.50;;;;;;5111548;28;20480;-77
2023/03/06 09:36:19;;;;;;;5.45;4.72;;;3.20;73.90;;;;;;5107522;28;20031;-75
2023/03/06 09:38:47;;;;;;;8.75;5.65;;;3.20;73.70;;;;;;5105010;28;20020;-76
2023/03/06 09:41:34;;;;;;;4.93;3.67;;;3.10;74.00;;;;;;5088796;28;20026;-75
2023/03/06 09:44:07;;;;;;;5.93;3.53;;;2.80;72.10;;;;;;5088825;28;20042;-76
2023/03/06 09:46:57;;;;;;;5.95;4.38;;;2.80;73.50;;;;;;5106063;28;20032;-76
2023/03/06 09:49:37;;;;;;;7.40;4.87;;;2.80;74.60;;;;;;5122869;28;20031;-76
2023/03/06 09:52:18;;;;;;;6.40;4.85;;;3.00;74.70;;;;;;5101813;28;20157;-75
2023/03/06 09:54:46;;;;;;;5.80;4.68;;;3.20;73.40;;;;;;5101899;28;20034;-77
2023/03/06 09:57:41;;;;;;;9.50;5.90;;;3.10;72.90;;;;;;5107605;28;20032;-75
2023/03/06 10:00:15;;;;;;;5.22;4.50;;;3.10;73.70;;;;;;5086663;28;20049;-78
2023/03/06 10:02:48;;;;;;;7.00;5.05;;;3.20;73.10;;;;;;5091287;28;20546;-75
2023/03/06 10:05:26;;;;;;;6.32;4.75;;;3.30;72.50;;;;;;5104953;28;20027;-78
2023/03/06 10:07:59;;;;;;;5.97;4.68;;;3.30;72.90;;;;;;5101664;28;20103;-78
2023/03/06 10:10:45;;;;;;;5.43;4.82;;;3.20;71.60;;;;;;5103074;28;20031;-83
2023/03/06 10:13:31;;;;;;;6.90;5.07;;;3.20;72.70;;;;;;5099498;28;20028;-76
2023/03/06 10:16:09;;;;;;;6.15;4.63;;;3.40;70.80;;;;;;5105105;28;20082;-76
2023/03/06 10:18:37;;;;;;;7.57;5.20;;;3.60;71.50;;;;;;5125152;28;20072;-76
2023/03/06 10:21:20;;;;;;;6.28;4.47;;;3.80;71.60;;;;;;5104758;28;20024;-77
2023/03/06 10:23:55;;;;;;;8.25;4.75;;;4.00;71.00;;;;;;5100948;28;20075;-81
2023/03/06 10:26:31;;;;;;;6.43;4.38;;;4.20;69.50;;;;;;5112479;28;20039;-77
2023/03/06 10:29:23;;;;;;;6.13;4.45;;;4.40;69.70;;;;;;5097534;28;20508;-79
2023/03/06 10:31:57;;;;;;;5.95;4.75;;;4.60;68.70;;;;;;5092949;28;20081;-79
2023/03/06 10:34:29;;;;;;;6.10;4.40;;;4.80;66.70;;;;;;5113190;28;20023;-81
2023/03/06 10:36:57;;;;;;;10.30;5.65;;;4.80;66.60;;;;;;5079053;28;20020;-79
2023/03/06 10:39:23;;;;;;;8.25;4.50;;;4.70;66.80;;;;;;5114806;28;20024;-84
2023/03/06 10:41:49;;;;;;;8.18;5.15;;;4.40;67.80;;;;;;5078874;28;20031;-82
2023/03/06 10:44:14;;;;;;;6.22;4.63;;;4.30;69.00;;;;;;5095245;28;20061;-80
2023/03/06 10:46:43;;;;;;;9.30;5.15;;;3.90;68.90;;;;;;5112434;28;20068;-75
2023/03/06 10:49:21;;;;;;;4.88;3.92;;;4.10;69.70;;;;;;5108477;28;20035;-83
2023/03/06 10:52:01;;;;;;;6.28;4.38;;;3.90;68.80;;;;;;5109256;28;20027;-77
2023/03/06 10:54:29;;;;;;;5.10;4.00;;;3.80;70.50;;;;;;5095086;28;20036;-76
2023/03/06 10:56:54;;;;;;;5.20;4.32;;;3.80;71.10;;;;;;5111998;28;20077;-77
2023/03/06 10:59:27;;;;;;;4.50;3.80;;;3.70;69.70;;;;;;5107022;28;20051;-77
2023/03/06 11:02:23;;;;;;;6.97;4.88;;;3.80;70.40;;;;;;5109367;28;20028;-77
2023/03/06 11:04:52;;;;;;;4.43;3.55;;;3.80;70.90;;;;;;5091337;28;20028;-78
2023/03/06 11:07:21;;;;;;;4.70;4.25;;;3.70;69.70;;;;;;5111993;28;20032;-80
2023/03/06 11:09:56;;;;;;;4.88;4.38;;;3.40;71.00;;;;;;5111843;28;20031;-78
2023/03/06 11:12:34;;;;;;;4.57;4.15;;;3.30;72.20;;;;;;5109139;28;20024;-80
2023/03/06 11:15:07;;;;;;;4.47;4.05;;;3.20;71.80;;;;;;5083975;28;20027;-78
2023/03/06 11:17:36;;;;;;;4.60;3.90;;;3.20;73.50;;;;;;5111980;28;20027;-79
2023/03/06 11:20:17;;;;;;;7.22;5.25;;;3.10;73.30;;;;;;5077693;28;20027;-78
2023/03/06 11:23:01;;;;;;;4.18;3.55;;;3.00;74.30;;;;;;5112061;28;20047;-79
2023/03/06 11:25:33;;;;;;;10.45;9.35;;;3.00;73.60;;;;;;5093452;28;20626;-79
2023/03/06 11:28:12;;;;;;;9.82;8.80;;;2.90;73.00;;;;;;5072680;28;20123;-79
2023/03/06 11:30:51;;;;;;;5.25;3.97;;;2.90;72.10;;;;;;5091411;28;20371;-76
2023/03/06 11:33:49;;;;;;;4.72;3.90;;;3.10;72.30;;;;;;5089721;28;20120;-80
2023/03/06 11:36:23;;;;;;;8.48;4.20;;;3.20;70.80;;;;;;5058505;28;20097;-76
2023/03/06 11:38:52;;;;;;;3.50;3.20;;;3.60;69.20;;;;;;5073592;28;20035;-79
2023/03/06 11:41:38;;;;;;;6.53;4.28;;;3.70;67.60;;;;;;5095850;28;20055;-80
2023/03/06 11:44:24;;;;;;;5.47;5.03;;;4.20;68.70;;;;;;5091239;28;20032;-82
2023/03/06 11:47:00;;;;;;;3.47;3.00;;;4.10;66.50;;;;;;5092088;28;20022;-80
2023/03/06 11:49:37;;;;;;;3.38;3.08;;;3.90;66.30;;;;;;5094443;28;20069;-78
2023/03/06 11:52:09;;;;;;;6.45;3.65;;;4.00;66.60;;;;;;5091075;28;20036;-81
2023/03/06 11:54:35;;;;;;;5.38;5.00;;;4.10;68.10;;;;;;5074153;28;20030;-79
2023/03/06 11:57:25;;;;;;;2.60;2.40;;;3.80;67.00;;;;;;5089858;28;20031;-81
2023/03/06 12:00:19;;;;;;;5.57;3.92;;;3.80;67.70;;;;;;5056684;28;20127;-79
2023/03/06 12:03:30;;;;;;;4.95;3.97;;;3.90;68.50;;;;;;5073335;28;20126;-78
2023/03/06 12:06:14;;;;;;;6.55;3.85;;;4.00;67.30;;;;;;5028456;28;20112;-75
2023/03/06 12:09:24;;;;;;;3.42;2.75;;;3.90;66.50;;;;;;5045423;28;20091;-77
2023/03/06 12:12:04;;;;;;;7.07;3.95;;;3.90;66.90;;;;;;5087996;28;20036;-77
2023/03/06 12:14:42;;;;;;;6.32;4.97;;;4.20;69.30;;;;;;5091884;28;20498;-76
2023/03/06 12:17:08;;;;;;;5.40;3.92;;;4.30;65.90;;;;;;5087877;28;20032;-78
2023/03/06 12:19:52;;;;;;;4.95;3.90;;;4.50;66.90;;;;;;5088591;28;20029;-75
2023/03/06 12:22:36;;;;;;;47.38;36.28;;;4.60;65.60;;;;;;5088887;28;20078;-78
2023/03/06 12:25:29;;;;;;;5.45;4.20;;;4.20;64.90;;;;;;5087806;28;20028;-77
2023/03/06 12:28:40;;;;;;;4.80;3.45;;;4.80;67.40;;;;;;5089491;28;20039;-75
2023/03/06 12:31:36;;;;;;;4.35;3.85;;;5.20;66.20;;;;;;5059985;28;20058;-75
2023/03/06 12:34:40;;;;;;;4.13;3.72;;;5.20;65.00;;;;;;5068064;28;20031;-76
2023/03/06 12:37:27;;;;;;;4.55;3.72;;;4.70;65.00;;;;;;5083829;28;20048;-79
2023/03/06 12:39:53;;;;;;;27.05;6.93;;;4.90;65.20;;;;;;5089393;28;20020;-77
2023/03/06 12:42:34;;;;;;;3.50;3.13;;;4.80;65.10;;;;;;5071050;28;20024;-76
2023/03/06 12:45:02;;;;;;;;;;;4.70;64.80;;;;;;5089409;28;20020;-77
2023/03/06 12:47:33;;;;;;;4.43;3.67;;;4.90;65.80;;;;;;5085102;28;20277;-77
2023/03/06 12:50:04;;;;;;;7.18;4.72;;;4.60;63.30;;;;;;5084609;28;20033;-77
2023/03/06 12:52:31;;;;;;;6.75;3.85;;;5.00;64.60;;;;;;5072944;28;20126;-76
2023/03/06 12:55:05;;;;;;;4.18;3.78;;;5.00;62.60;;;;;;5071525;28;20032;-75
2023/03/06 12:57:30;;;;;;;4.55;3.40;;;5.20;62.90;;;;;;5059699;28;20409;-75
2023/03/06 12:59:56;;;;;;;4.22;3.60;;;5.20;62.10;;;;;;5076634;28;20100;-77
2023/03/06 13:02:31;;;;;;;3.55;3.25;;;4.90;60.90;;;;;;5074830;28;20446;-75
2023/03/06 13:05:25;;;;;;;3.95;3.17;;;5.00;61.20;;;;;;5069683;28;20058;-76